Time;durP1;ratioP1;P1;durP2;ratioP2;P2;SDS_P1;SDS_P2;PMS_P1;PMS_P2;Temp;Humidity;BMP_temperature;BMP_pressure;BME280_temperature;BME280_humidity;BME280_pressure;Samples;Min_cycle;Max_cycle;Signal;HPM_P1;HPM_P2
2023/08/26 00:01:45;;;;;;;312.43;227.10;;;;;;;;;;5072100;28;20419;-55
2023/08/26 00:04:11;;;;;;;328.13;238.30;;;;;;;;;;5072161;28;20777;-54
2023/08/26 00:06:37;;;;;;;332.07;237.47;;;;;;;;;;5072419;28;20395;-55
2023/08/26 00:09:03;;;;;;;323.00;236.07;;;;;;;;;;5072078;28;20431;-55
2023/08/26 00:11:29;;;;;;;308.90;228.37;;;;;;;;;;5071836;28;20459;-55
2023/08/26 00:13:55;;;;;;;293.87;194.67;;;;;;;;;;5071975;28;20432;-55
2023/08/26 00:16:21;;;;;;;300.67;200.87;;;;;;;;;;5072255;28;20415;-55
2023/08/26 00:18:49;;;;;;;327.23;224.23;;;;;;;;;;5072241;28;20428;-55
2023/08/26 00:21:16;;;;;;;311.43;213.67;;;;;;;;;;5072004;28;20403;-55
2023/08/26 00:23:42;;;;;;;296.47;183.37;;;;;;;;;;5071887;28;20419;-55
2023/08/26 00:26:11;;;;;;;300.13;197.80;;;;;;;;;;5072100;28;20407;-55
2023/08/26 00:28:37;;;;;;;313.37;224.73;;;;;;;;;;5072160;28;20411;-55
2023/08/26 00:31:03;;;;;;;298.63;201.93;;;;;;;;;;5071940;28;20416;-55
2023/08/26 00:33:29;;;;;;;303.93;206.57;;;;;;;;;;5072164;28;20525;-55
2023/08/26 00:35:55;;;;;;;312.33;214.60;;;;;;;;;;5072063;28;20849;-55
2023/08/26 00:38:21;;;;;;;322.87;231.50;;;;;;;;;;5071925;28;20433;-55
2023/08/26 00:40:47;;;;;;;303.07;209.40;;;;;;;;;;5071763;28;20400;-55
2023/08/26 00:43:13;;;;;;;312.20;213.63;;;;;;;;;;5071989;28;20484;-55
2023/08/26 00:45:45;;;;;;;295.33;173.43;;;;;;;;;;5071865;28;20844;-54
2023/08/26 00:48:12;;;;;;;330.77;244.23;;;;;;;;;;5071855;28;20399;-55
2023/08/26 00:50:39;;;;;;;291.33;198.43;;;;;;;;;;5071484;28;20947;-55
2023/08/26 00:53:06;;;;;;;303.27;202.00;;;;;;;;;;5070998;28;20811;-54
2023/08/26 00:55:32;;;;;;;288.57;177.13;;;;;;;;;;5070310;28;20420;-55
2023/08/26 00:57:58;;;;;;;304.87;209.20;;;;;;;;;;5071538;28;20486;-55
2023/08/26 01:00:25;;;;;;;298.95;183.88;;;;;;;;;;5071847;28;20412;-55
2023/08/26 01:02:51;;;;;;;280.93;168.23;;;;;;;;;;5070713;28;20201;-55
2023/08/26 01:05:17;;;;;;;275.70;150.63;;;;;;;;;;5070723;28;20420;-55
2023/08/26 01:07:45;;;;;;;289.27;173.77;;;;;;;;;;5076767;28;20443;-55
2023/08/26 01:10:11;;;;;;;271.90;150.40;;;;;;;;;;5077977;28;20411;-53
2023/08/26 01:12:45;;;;;;;289.67;182.63;;;;;;;;;;5085414;28;20487;-54
2023/08/26 01:15:12;;;;;;;285.50;183.80;;;;;;;;;;5074439;28;20486;-55
2023/08/26 01:17:40;;;;;;;288.85;181.43;;;;;;;;;;5077993;28;20414;-55
2023/08/26 01:20:08;;;;;;;274.40;155.97;;;;;;;;;;5077732;28;20181;-55
2023/08/26 01:22:35;;;;;;;286.73;177.38;;;;;;;;;;5077944;28;20843;-55
2023/08/26 01:25:01;;;;;;;341.67;227.03;;;;;;;;;;5077912;28;20177;-55
2023/08/26 01:27:27;;;;;;;285.10;170.40;;;;;;;;;;5078033;28;20414;-55
2023/08/26 01:29:53;;;;;;;295.10;196.63;;;;;;;;;;5077653;28;20494;-54
2023/08/26 01:32:25;;;;;;;292.88;191.45;;;;;;;;;;5077628;28;20986;-55
2023/08/26 01:34:53;;;;;;;323.23;231.20;;;;;;;;;;5071584;28;20179;-54
2023/08/26 01:37:20;;;;;;;291.45;184.10;;;;;;;;;;5077835;28;20177;-52
2023/08/26 01:39:47;;;;;;;312.17;211.30;;;;;;;;;;5077614;28;20172;-55
2023/08/26 01:42:14;;;;;;;288.03;187.40;;;;;;;;;;5077839;28;20443;-55
2023/08/26 01:44:41;;;;;;;304.88;190.02;;;;;;;;;;5069630;28;20415;-55
2023/08/26 01:47:07;;;;;;;344.00;264.08;;;;;;;;;;5077641;28;20257;-55
2023/08/26 01:49:33;;;;;;;290.08;178.15;;;;;;;;;;5077627;28;20659;-55
2023/08/26 01:51:59;;;;;;;297.60;199.80;;;;;;;;;;5077335;28;20203;-55
2023/08/26 01:54:25;;;;;;;366.57;247.67;;;;;;;;;;5077841;28;20407;-55
2023/08/26 01:56:51;;;;;;;285.87;175.90;;;;;;;;;;5077679;28;20398;-55
2023/08/26 01:59:17;;;;;;;337.27;223.70;;;;;;;;;;5077666;28;20409;-53
2023/08/26 02:01:43;;;;;;;356.87;234.97;;;;;;;;;;5077187;28;20899;-55
2023/08/26 02:04:09;;;;;;;296.83;176.23;;;;;;;;;;5077937;28;20922;-55
2023/08/26 02:06:37;;;;;;;354.73;231.83;;;;;;;;;;5077528;28;20827;-55
2023/08/26 02:09:03;;;;;;;301.17;195.63;;;;;;;;;;5077561;28;20473;-55
2023/08/26 02:11:29;;;;;;;315.40;187.13;;;;;;;;;;5077266;28;20402;-55
2023/08/26 02:13:55;;;;;;;340.80;232.23;;;;;;;;;;5077388;28;20442;-55
2023/08/26 02:16:21;;;;;;;305.13;199.70;;;;;;;;;;5077421;28;20572;-55
2023/08/26 02:18:47;;;;;;;316.37;172.90;;;;;;;;;;5074327;28;20425;-55
2023/08/26 02:21:13;;;;;;;363.47;251.93;;;;;;;;;;5074066;28;20417;-54
2023/08/26 02:23:39;;;;;;;367.00;252.23;;;;;;;;;;5074073;28;20433;-56
2023/08/26 02:26:05;;;;;;;323.57;223.87;;;;;;;;;;5074217;28;20408;-55
2023/08/26 02:28:31;;;;;;;294.77;167.00;;;;;;;;;;5074157;28;20541;-55
2023/08/26 02:30:57;;;;;;;304.77;197.20;;;;;;;;;;5073828;28;20406;-55
2023/08/26 02:33:24;;;;;;;306.43;186.60;;;;;;;;;;5073912;28;20970;-55
2023/08/26 02:35:50;;;;;;;331.80;207.10;;;;;;;;;;5074098;28;20403;-55
2023/08/26 02:38:16;;;;;;;358.87;221.10;;;;;;;;;;5073979;28;20748;-55
2023/08/26 02:40:50;;;;;;;367.77;226.27;;;;;;;;;;5073823;28;20444;-55
2023/08/26 02:43:16;;;;;;;298.43;196.43;;;;;;;;;;5073662;28;20770;-55
2023/08/26 02:45:42;;;;;;;347.40;225.57;;;;;;;;;;5073813;28;20416;-55
2023/08/26 02:48:08;;;;;;;381.63;260.03;;;;;;;;;;5073784;28;20837;-55
2023/08/26 02:50:36;;;;;;;303.83;172.33;;;;;;;;;;5073476;28;20525;-55
2023/08/26 02:53:02;;;;;;;315.63;196.93;;;;;;;;;;5073618;28;20473;-56
2023/08/26 02:55:28;;;;;;;334.60;209.73;;;;;;;;;;5073615;28;20411;-56
2023/08/26 02:57:54;;;;;;;318.87;197.83;;;;;;;;;;5073540;28;20433;-55
2023/08/26 03:00:20;;;;;;;334.80;219.00;;;;;;;;;;5073298;28;20471;-56
2023/08/26 03:02:46;;;;;;;309.03;200.13;;;;;;;;;;5073641;28;20426;-56
2023/08/26 03:05:12;;;;;;;342.93;214.93;;;;;;;;;;5073356;28;20417;-55
2023/08/26 03:07:38;;;;;;;345.07;196.20;;;;;;;;;;5073432;28;20436;-55
2023/08/26 03:10:04;;;;;;;334.80;200.37;;;;;;;;;;5073212;28;20408;-55
2023/08/26 03:12:29;;;;;;;357.47;208.90;;;;;;;;;;5072990;28;20467;-56
2023/08/26 03:14:55;;;;;;;310.10;167.17;;;;;;;;;;5073402;28;20764;-55
2023/08/26 03:17:21;;;;;;;324.30;188.77;;;;;;;;;;5073389;28;20894;-56
2023/08/26 03:19:47;;;;;;;344.30;215.37;;;;;;;;;;5073040;28;20904;-56
2023/08/26 03:22:13;;;;;;;288.00;168.10;;;;;;;;;;5073024;28;20447;-56
2023/08/26 03:24:39;;;;;;;293.23;153.13;;;;;;;;;;5073033;28;20407;-55
2023/08/26 03:27:05;;;;;;;301.87;190.63;;;;;;;;;;5072980;28;20419;-55
2023/08/26 03:29:31;;;;;;;318.33;178.17;;;;;;;;;;5072763;28;20414;-56
2023/08/26 03:31:57;;;;;;;336.67;181.20;;;;;;;;;;5072646;28;20478;-56
2023/08/26 03:34:23;;;;;;;307.83;200.27;;;;;;;;;;5072793;28;20909;-56
2023/08/26 03:36:49;;;;;;;307.17;172.57;;;;;;;;;;5072907;28;20747;-56
2023/08/26 03:39:15;;;;;;;270.30;141.20;;;;;;;;;;5072719;28;20459;-55
2023/08/26 03:41:41;;;;;;;284.97;167.83;;;;;;;;;;5072796;28;20805;-56
2023/08/26 03:44:07;;;;;;;269.13;120.27;;;;;;;;;;5072820;28;20425;-56
2023/08/26 03:46:33;;;;;;;284.67;172.07;;;;;;;;;;5072795;28;20409;-56
2023/08/26 03:48:59;;;;;;;324.17;171.70;;;;;;;;;;5072605;28;20420;-54
2023/08/26 03:51:25;;;;;;;300.42;173.75;;;;;;;;;;5072190;28;20916;-54
2023/08/26 03:53:51;;;;;;;274.83;143.20;;;;;;;;;;5072333;28;20213;-54
2023/08/26 03:56:17;;;;;;;301.60;177.07;;;;;;;;;;5072442;28;20410;-55
2023/08/26 03:58:43;;;;;;;282.17;147.70;;;;;;;;;;5072874;28;20492;-55
2023/08/26 04:01:09;;;;;;;318.40;183.27;;;;;;;;;;5073055;28;20776;-54
2023/08/26 04:03:35;;;;;;;286.43;166.83;;;;;;;;;;5072621;28;20420;-56
2023/08/26 04:06:02;;;;;;;274.63;132.20;;;;;;;;;;5072191;28;20412;-55
2023/08/26 04:08:29;;;;;;;281.10;147.53;;;;;;;;;;5072255;28;20421;-56
2023/08/26 04:10:56;;;;;;;292.07;173.53;;;;;;;;;;5071902;28;20409;-55
2023/08/26 04:13:24;;;;;;;279.77;142.07;;;;;;;;;;5071954;28;20569;-55
2023/08/26 04:15:52;;;;;;;315.40;213.27;;;;;;;;;;5072193;28;20482;-55
2023/08/26 04:18:18;;;;;;;276.40;149.47;;;;;;;;;;5072118;28;20416;-55
2023/08/26 04:20:44;;;;;;;276.13;145.27;;;;;;;;;;5071938;28;20454;-55
2023/08/26 04:23:10;;;;;;;285.57;160.00;;;;;;;;;;5071923;28;20424;-55
2023/08/26 04:25:38;;;;;;;277.50;150.75;;;;;;;;;;5071912;28;20499;-54
2023/08/26 04:28:04;;;;;;;309.17;177.63;;;;;;;;;;5072069;28;20264;-55
2023/08/26 04:30:30;;;;;;;311.10;172.40;;;;;;;;;;5071635;28;20178;-55
2023/08/26 04:32:55;;;;;;;316.20;213.90;;;;;;;;;;5071944;28;20216;-55
2023/08/26 04:35:21;;;;;;;282.43;150.63;;;;;;;;;;5071787;28;20461;-53
2023/08/26 04:37:47;;;;;;;288.93;164.20;;;;;;;;;;5071712;28;20539;-54
2023/08/26 04:40:13;;;;;;;270.17;139.37;;;;;;;;;;5071440;28;20404;-55
2023/08/26 04:42:40;;;;;;;272.60;135.37;;;;;;;;;;5071257;28;20424;-55
2023/08/26 04:45:06;;;;;;;289.13;161.60;;;;;;;;;;5071685;28;20447;-55
2023/08/26 04:47:33;;;;;;;281.23;153.32;;;;;;;;;;5071629;28;20424;-55
2023/08/26 04:49:59;;;;;;;281.13;161.77;;;;;;;;;;5074516;28;20177;-53
2023/08/26 04:52:25;;;;;;;270.17;131.73;;;;;;;;;;5071498;28;20210;-55
2023/08/26 04:54:51;;;;;;;292.15;159.77;;;;;;;;;;5072044;28;20304;-54
2023/08/26 04:57:17;;;;;;;271.90;135.70;;;;;;;;;;5071836;28;20642;-54
2023/08/26 04:59:43;;;;;;;285.77;145.37;;;;;;;;;;5071738;28;20462;-55
2023/08/26 05:02:09;;;;;;;270.33;129.25;;;;;;;;;;5072288;28;20456;-52
2023/08/26 05:04:36;;;;;;;305.40;181.97;;;;;;;;;;5071738;28;20260;-52
2023/08/26 05:07:03;;;;;;;272.10;129.98;;;;;;;;;;5071609;28;20428;-53
2023/08/26 05:09:29;;;;;;;270.17;115.35;;;;;;;;;;5071705;28;20193;-53
2023/08/26 05:11:58;;;;;;;283.67;151.00;;;;;;;;;;5071487;28;20200;-52
2023/08/26 05:14:24;;;;;;;300.25;172.63;;;;;;;;;;5071563;28;20699;-52
2023/08/26 05:16:51;;;;;;;271.33;125.23;;;;;;;;;;5071659;28;20170;-52
2023/08/26 05:19:17;;;;;;;297.90;153.37;;;;;;;;;;5071557;28;20399;-52
2023/08/26 05:21:43;;;;;;;296.13;160.37;;;;;;;;;;5071370;28;20397;-52
2023/08/26 05:24:09;;;;;;;310.10;175.63;;;;;;;;;;5071485;28;20439;-51
2023/08/26 05:26:36;;;;;;;329.92;184.25;;;;;;;;;;5071532;28;20166;-51
2023/08/26 05:29:02;;;;;;;292.02;161.00;;;;;;;;;;5071513;28;20539;-52
2023/08/26 05:31:28;;;;;;;303.90;157.73;;;;;;;;;;5071205;28;20173;-51
2023/08/26 05:33:54;;;;;;;274.67;136.50;;;;;;;;;;5071257;28;20202;-51
2023/08/26 05:36:20;;;;;;;292.17;166.77;;;;;;;;;;5071303;28;20442;-51
2023/08/26 05:38:46;;;;;;;270.90;127.77;;;;;;;;;;5071423;28;20400;-51
2023/08/26 05:41:12;;;;;;;278.93;135.43;;;;;;;;;;5071157;28;20397;-51
2023/08/26 05:43:38;;;;;;;318.00;178.45;;;;;;;;;;5071360;28;20858;-51
2023/08/26 05:46:04;;;;;;;283.83;141.10;;;;;;;;;;5071367;28;20647;-52
2023/08/26 05:48:30;;;;;;;304.50;163.63;;;;;;;;;;5071342;28;20897;-52
2023/08/26 05:50:59;;;;;;;306.53;185.07;;;;;;;;;;5070812;28;21027;-53
2023/08/26 05:53:25;;;;;;;287.95;156.45;;;;;;;;;;5072365;28;20460;-52
2023/08/26 05:55:51;;;;;;;294.67;174.25;;;;;;;;;;5075012;28;20641;-53
2023/08/26 05:58:17;;;;;;;270.10;128.53;;;;;;;;;;5074952;28;20167;-53
2023/08/26 06:00:43;;;;;;;300.60;164.60;;;;;;;;;;5074777;28;20402;-54
2023/08/26 06:03:09;;;;;;;259.40;106.30;;;;;;;;;;5074781;28;20424;-54
2023/08/26 06:05:35;;;;;;;305.17;174.63;;;;;;;;;;5074734;28;20453;-51
2023/08/26 06:08:01;;;;;;;335.67;205.97;;;;;;;;;;5074810;28;20412;-52
2023/08/26 06:10:27;;;;;;;286.27;151.73;;;;;;;;;;5074522;28;20408;-52
2023/08/26 06:12:52;;;;;;;299.57;175.60;;;;;;;;;;5074608;28;20512;-51
2023/08/26 06:15:18;;;;;;;277.30;136.20;;;;;;;;;;5074690;28;20901;-53
2023/08/26 06:17:44;;;;;;;266.10;121.03;;;;;;;;;;5074598;28;20910;-54
2023/08/26 06:20:11;;;;;;;276.27;132.27;;;;;;;;;;5074266;28;20539;-54
2023/08/26 06:22:37;;;;;;;317.03;179.93;;;;;;;;;;5074456;28;20482;-53
2023/08/26 06:25:03;;;;;;;284.03;147.20;;;;;;;;;;5074374;28;20888;-52
2023/08/26 06:27:29;;;;;;;286.27;144.67;;;;;;;;;;5074455;28;20403;-51
2023/08/26 06:29:55;;;;;;;279.40;133.05;;;;;;;;;;5074251;28;20398;-52
2023/08/26 06:32:21;;;;;;;276.20;133.67;;;;;;;;;;5074619;28;20198;-52
2023/08/26 06:34:47;;;;;;;272.40;128.77;;;;;;;;;;5074282;28;20402;-52
2023/08/26 06:37:14;;;;;;;288.93;155.13;;;;;;;;;;5074358;28;20661;-52
2023/08/26 06:39:40;;;;;;;279.20;142.47;;;;;;;;;;5074094;28;20389;-51
2023/08/26 06:42:06;;;;;;;294.43;179.23;;;;;;;;;;5074149;28;20837;-52
2023/08/26 06:44:32;;;;;;;302.70;166.27;;;;;;;;;;5074007;28;20406;-52
2023/08/26 06:46:59;;;;;;;305.07;175.37;;;;;;;;;;5074077;28;20397;-51
2023/08/26 06:49:25;;;;;;;300.27;164.48;;;;;;;;;;5074238;28;20442;-53
2023/08/26 06:51:51;;;;;;;275.57;139.33;;;;;;;;;;5081985;28;20515;-52
2023/08/26 06:54:18;;;;;;;289.23;150.93;;;;;;;;;;5093848;28;20511;-52
2023/08/26 06:56:44;;;;;;;278.30;153.80;;;;;;;;;;5093643;28;20419;-53
2023/08/26 06:59:10;;;;;;;292.57;152.47;;;;;;;;;;5093519;28;20205;-53
2023/08/26 07:01:36;;;;;;;264.03;121.67;;;;;;;;;;5093234;28;20405;-52
2023/08/26 07:04:05;;;;;;;291.20;157.40;;;;;;;;;;5092912;28;20424;-52
2023/08/26 07:06:31;;;;;;;279.00;140.27;;;;;;;;;;5093303;28;20415;-51
2023/08/26 07:08:57;;;;;;;292.20;150.50;;;;;;;;;;5093655;28;20625;-52
2023/08/26 07:11:23;;;;;;;266.53;124.23;;;;;;;;;;5093701;28;20440;-52
2023/08/26 07:13:49;;;;;;;290.47;148.93;;;;;;;;;;5093665;28;20492;-52
2023/08/26 07:16:15;;;;;;;276.93;135.60;;;;;;;;;;5093605;28;20409;-53
2023/08/26 07:18:42;;;;;;;283.35;147.50;;;;;;;;;;5093918;28;20432;-52
2023/08/26 07:21:08;;;;;;;262.65;119.88;;;;;;;;;;5093466;28;20163;-54
2023/08/26 07:23:33;;;;;;;330.53;244.47;;;;;;;;;;5093700;28;20200;-52
2023/08/26 07:25:59;;;;;;;285.53;151.77;;;;;;;;;;5092183;28;20399;-52
2023/08/26 07:28:25;;;;;;;273.03;134.70;;;;;;;;;;5093569;28;20409;-52
2023/08/26 07:30:52;;;;;;;264.60;128.80;;;;;;;;;;5093173;28;20397;-51
2023/08/26 07:33:18;;;;;;;258.17;110.90;;;;;;;;;;5093279;28;20456;-52
2023/08/26 07:35:44;;;;;;;261.07;114.97;;;;;;;;;;5093350;28;20662;-51
2023/08/26 07:38:10;;;;;;;260.27;111.20;;;;;;;;;;5093457;28;20402;-52
2023/08/26 07:40:36;;;;;;;260.40;113.00;;;;;;;;;;5093065;28;20406;-53
2023/08/26 07:43:04;;;;;;;262.07;110.03;;;;;;;;;;5077474;28;20541;-54
2023/08/26 07:45:30;;;;;;;266.77;122.90;;;;;;;;;;5072349;28;20494;-53
2023/08/26 07:47:57;;;;;;;262.43;114.13;;;;;;;;;;5074632;28;20463;-52
2023/08/26 07:50:23;;;;;;;262.07;117.77;;;;;;;;;;5074495;28;20427;-52
2023/08/26 07:52:49;;;;;;;260.33;116.00;;;;;;;;;;5072433;28;20474;-53
2023/08/26 07:55:15;;;;;;;264.97;122.80;;;;;;;;;;5072400;28;20401;-54
2023/08/26 07:57:41;;;;;;;269.30;129.80;;;;;;;;;;5072962;28;20412;-54
2023/08/26 08:00:08;;;;;;;267.30;127.23;;;;;;;;;;5072107;28;20492;-51
2023/08/26 08:02:33;;;;;;;261.80;120.63;;;;;;;;;;5072241;28;20788;-52
2023/08/26 08:04:59;;;;;;;263.57;124.87;;;;;;;;;;5072239;28;20419;-51
2023/08/26 08:07:25;;;;;;;262.50;121.77;;;;;;;;;;5072358;28;20412;-51
2023/08/26 08:09:53;;;;;;;270.20;131.17;;;;;;;;;;5072015;28;20404;-52
2023/08/26 08:12:19;;;;;;;265.63;127.80;;;;;;;;;;5072013;28;20463;-52
2023/08/26 08:14:45;;;;;;;261.80;122.47;;;;;;;;;;5072119;28;20404;-52
2023/08/26 08:17:11;;;;;;;255.20;115.77;;;;;;;;;;5071595;28;20905;-53
2023/08/26 08:19:41;;;;;;;259.93;117.40;;;;;;;;;;5071982;28;20877;-53
2023/08/26 08:22:07;;;;;;;256.20;113.57;;;;;;;;;;5072266;28;20829;-53
2023/08/26 08:24:33;;;;;;;260.97;120.90;;;;;;;;;;5071845;28;20416;-52
2023/08/26 08:26:59;;;;;;;259.60;122.57;;;;;;;;;;5071922;28;20894;-53
2023/08/26 08:29:25;;;;;;;261.30;131.50;;;;;;;;;;5072051;28;20409;-52
2023/08/26 08:31:51;;;;;;;260.73;122.73;;;;;;;;;;5071928;28;20436;-53
2023/08/26 08:34:17;;;;;;;261.03;122.20;;;;;;;;;;5072073;28;20422;-52
2023/08/26 08:36:43;;;;;;;259.87;124.43;;;;;;;;;;5072054;28;20404;-52
2023/08/26 08:39:09;;;;;;;260.13;122.70;;;;;;;;;;5072084;28;20397;-53
2023/08/26 08:41:36;;;;;;;258.87;120.70;;;;;;;;;;5071755;28;20491;-54
2023/08/26 08:44:08;;;;;;;259.80;123.40;;;;;;;;;;5072159;28;20420;-52
2023/08/26 08:46:34;;;;;;;266.93;131.87;;;;;;;;;;5072078;28;20400;-53
2023/08/26 08:49:00;;;;;;;263.67;130.23;;;;;;;;;;5071912;28;20492;-53
2023/08/26 08:51:27;;;;;;;255.80;121.70;;;;;;;;;;5071515;28;20428;-51
2023/08/26 08:53:53;;;;;;;260.77;127.67;;;;;;;;;;5071751;28;20801;-52
2023/08/26 08:56:19;;;;;;;260.73;127.67;;;;;;;;;;5071784;28;20396;-51
2023/08/26 08:58:47;;;;;;;261.03;127.60;;;;;;;;;;5071969;28;20393;-52
2023/08/26 09:01:14;;;;;;;258.47;127.93;;;;;;;;;;5071626;28;20914;-54
2023/08/26 09:03:40;;;;;;;259.67;126.47;;;;;;;;;;5071748;28;20420;-52
2023/08/26 09:06:07;;;;;;;261.53;131.77;;;;;;;;;;5071769;28;20908;-52
2023/08/26 09:08:33;;;;;;;258.63;122.33;;;;;;;;;;5071682;28;20415;-52
2023/08/26 09:10:59;;;;;;;259.60;128.50;;;;;;;;;;5071477;28;20403;-51
2023/08/26 09:13:25;;;;;;;260.07;128.33;;;;;;;;;;5071506;28;20451;-53
2023/08/26 09:15:51;;;;;;;260.10;125.23;;;;;;;;;;5071655;28;20410;-52
2023/08/26 09:18:19;;;;;;;252.43;117.20;;;;;;;;;;5071743;28;20402;-54
2023/08/26 09:20:46;;;;;;;254.53;119.00;;;;;;;;;;5071458;28;20408;-52
2023/08/26 09:23:12;;;;;;;255.47;122.43;;;;;;;;;;5071418;28;20508;-53
2023/08/26 09:25:38;;;;;;;255.90;121.13;;;;;;;;;;5071509;28;20440;-52
2023/08/26 09:28:04;;;;;;;257.17;124.33;;;;;;;;;;5073819;28;20473;-52
2023/08/26 09:30:31;;;;;;;250.97;113.50;;;;;;;;;;5075384;28;20405;-53
2023/08/26 09:32:57;;;;;;;255.33;120.20;;;;;;;;;;5075360;28;20459;-52
2023/08/26 09:35:23;;;;;;;259.40;128.33;;;;;;;;;;5075444;28;20405;-52
2023/08/26 09:37:56;;;;;;;257.00;124.60;;;;;;;;;;5074896;28;20402;-52
2023/08/26 09:40:22;;;;;;;253.97;118.10;;;;;;;;;;5074609;28;20833;-54
2023/08/26 09:42:50;;;;;;;255.10;120.90;;;;;;;;;;5074026;28;20968;-53
2023/08/26 09:45:19;;;;;;;250.33;113.10;;;;;;;;;;5074107;28;20409;-52
2023/08/26 09:47:49;;;;;;;251.60;114.80;;;;;;;;;;5075147;28;20911;-53
2023/08/26 09:50:15;;;;;;;250.13;116.40;;;;;;;;;;5074810;28;20412;-52
2023/08/26 09:52:42;;;;;;;252.83;118.67;;;;;;;;;;5090228;28;20461;-52
2023/08/26 09:55:09;;;;;;;251.90;119.03;;;;;;;;;;5095349;28;20740;-52
2023/08/26 09:57:35;;;;;;;256.97;125.60;;;;;;;;;;5095346;28;20490;-52
2023/08/26 10:00:01;;;;;;;259.43;131.33;;;;;;;;;;5095189;28;20519;-52
2023/08/26 10:02:28;;;;;;;258.60;124.53;;;;;;;;;;5080898;28;20523;-52
2023/08/26 10:05:00;;;;;;;254.77;122.40;;;;;;;;;;5068580;28;20419;-53
2023/08/26 10:07:27;;;;;;;256.63;125.40;;;;;;;;;;5071153;28;20438;-52
2023/08/26 10:10:16;;;;;;;263.27;132.10;;;;;;;;;;5068980;28;20412;-52
2023/08/26 10:12:44;;;;;;;252.83;115.33;;;;;;;;;;5069237;28;20466;-51
2023/08/26 10:15:15;;;;;;;260.03;132.00;;;;;;;;;;5071038;28;20488;-52
2023/08/26 10:17:43;;;;;;;269.23;136.17;;;;;;;;;;5064025;28;20423;-52
2023/08/26 10:20:09;;;;;;;260.27;131.10;;;;;;;;;;5070042;28;20419;-51
2023/08/26 10:22:36;;;;;;;263.87;136.27;;;;;;;;;;5067420;28;20424;-53
2023/08/26 10:25:03;;;;;;;263.87;135.23;;;;;;;;;;5061008;28;20430;-52
2023/08/26 10:27:29;;;;;;;262.93;130.07;;;;;;;;;;5065255;28;20435;-52
2023/08/26 10:29:56;;;;;;;267.80;143.50;;;;;;;;;;5065465;28;20970;-52
2023/08/26 10:32:23;;;;;;;264.50;134.53;;;;;;;;;;5063538;28;20494;-53
2023/08/26 10:34:53;;;;;;;258.30;125.23;;;;;;;;;;5074076;28;20499;-53
2023/08/26 10:37:19;;;;;;;262.47;132.17;;;;;;;;;;5058377;28;20417;-52
2023/08/26 10:39:45;;;;;;;273.20;149.73;;;;;;;;;;5053065;28;20726;-52
2023/08/26 10:42:16;;;;;;;265.93;135.47;;;;;;;;;;5053976;28;20802;-53
2023/08/26 10:44:43;;;;;;;268.63;144.33;;;;;;;;;;5053796;28;20404;-54
2023/08/26 10:47:10;;;;;;;265.27;136.50;;;;;;;;;;5054079;28;20425;-53
2023/08/26 10:49:39;;;;;;;264.67;136.83;;;;;;;;;;5064424;28;20416;-53
2023/08/26 10:52:13;;;;;;;262.80;136.77;;;;;;;;;;5083984;28;20450;-53
2023/08/26 10:54:42;;;;;;;269.20;146.87;;;;;;;;;;5094058;28;20929;-53
2023/08/26 10:57:08;;;;;;;268.63;146.60;;;;;;;;;;5094335;28;20430;-53
2023/08/26 10:59:35;;;;;;;270.40;148.60;;;;;;;;;;5094616;28;20400;-55
2023/08/26 11:02:01;;;;;;;272.80;153.23;;;;;;;;;;5096506;28;20396;-54
2023/08/26 11:04:27;;;;;;;269.33;146.13;;;;;;;;;;5080093;28;20419;-55
2023/08/26 11:06:53;;;;;;;268.77;146.00;;;;;;;;;;5074655;28;20401;-53
2023/08/26 11:09:19;;;;;;;273.43;157.10;;;;;;;;;;5073490;28;20458;-52
2023/08/26 11:11:46;;;;;;;268.50;146.87;;;;;;;;;;5073646;28;20400;-53
2023/08/26 11:14:12;;;;;;;264.90;152.13;;;;;;;;;;5073331;28;20447;-52
2023/08/26 11:16:38;;;;;;;270.70;154.00;;;;;;;;;;5072293;28;20461;-53
2023/08/26 11:19:04;;;;;;;266.33;143.90;;;;;;;;;;5073351;28;20501;-51
2023/08/26 11:21:30;;;;;;;265.23;143.87;;;;;;;;;;5073092;28;20918;-53
2023/08/26 11:23:57;;;;;;;264.70;145.53;;;;;;;;;;5073653;28;20429;-54
2023/08/26 11:26:24;;;;;;;268.73;151.60;;;;;;;;;;5075543;28;20404;-54
2023/08/26 11:28:50;;;;;;;264.73;149.10;;;;;;;;;;5074496;28;20454;-54
2023/08/26 11:31:16;;;;;;;267.53;151.27;;;;;;;;;;5073002;28;20809;-53
2023/08/26 11:33:42;;;;;;;264.43;146.33;;;;;;;;;;5072879;28;20474;-53
2023/08/26 11:36:09;;;;;;;264.07;144.00;;;;;;;;;;5073009;28;20404;-53
2023/08/26 11:38:35;;;;;;;271.03;158.60;;;;;;;;;;5073308;28;20480;-52
2023/08/26 11:41:08;;;;;;;268.67;154.87;;;;;;;;;;5073622;28;20504;-52
2023/08/26 11:43:37;;;;;;;265.27;149.73;;;;;;;;;;5072851;28;20843;-53
2023/08/26 11:46:05;;;;;;;266.57;153.47;;;;;;;;;;5072846;28;20416;-53
2023/08/26 11:48:31;;;;;;;278.37;173.47;;;;;;;;;;5072813;28;20396;-52
2023/08/26 11:51:02;;;;;;;271.50;160.00;;;;;;;;;;5073045;28;20459;-53
2023/08/26 11:53:28;;;;;;;266.30;151.33;;;;;;;;;;5092891;28;20998;-52
2023/08/26 11:55:55;;;;;;;271.87;160.00;;;;;;;;;;5074701;28;20601;-53
2023/08/26 11:58:21;;;;;;;269.33;157.60;;;;;;;;;;5072827;28;20717;-53
2023/08/26 12:00:48;;;;;;;296.63;195.90;;;;;;;;;;5072419;28;20480;-53
2023/08/26 12:03:14;;;;;;;295.23;187.57;;;;;;;;;;5072403;28;20427;-53
2023/08/26 12:05:48;;;;;;;288.47;173.37;;;;;;;;;;5072402;28;20404;-52
2023/08/26 12:08:15;;;;;;;296.67;192.07;;;;;;;;;;5072700;28;20411;-53
2023/08/26 12:10:41;;;;;;;285.00;166.70;;;;;;;;;;5072246;28;20405;-53
2023/08/26 12:13:07;;;;;;;285.27;185.10;;;;;;;;;;5072722;28;20455;-53
2023/08/26 12:15:33;;;;;;;281.33;181.93;;;;;;;;;;5072579;28;20761;-52
2023/08/26 12:18:02;;;;;;;271.77;164.47;;;;;;;;;;5072223;28;20439;-53
2023/08/26 12:20:29;;;;;;;277.70;173.53;;;;;;;;;;5072323;28;20393;-52
2023/08/26 12:22:56;;;;;;;278.27;174.00;;;;;;;;;;5072329;28;20432;-53
2023/08/26 12:25:25;;;;;;;269.47;157.20;;;;;;;;;;5072431;28;20412;-53
2023/08/26 12:27:52;;;;;;;268.67;156.90;;;;;;;;;;5072310;28;20919;-53
2023/08/26 12:30:19;;;;;;;274.90;166.13;;;;;;;;;;5072253;28;20431;-53
2023/08/26 12:32:46;;;;;;;269.93;157.17;;;;;;;;;;5072194;28;20456;-52
2023/08/26 12:35:12;;;;;;;269.13;151.50;;;;;;;;;;5072349;28;20400;-52
2023/08/26 12:37:38;;;;;;;272.27;156.57;;;;;;;;;;5072433;28;20751;-53
2023/08/26 12:40:04;;;;;;;268.53;147.37;;;;;;;;;;5072009;28;20767;-53
2023/08/26 12:42:33;;;;;;;272.33;156.53;;;;;;;;;;5072103;28;20428;-53
2023/08/26 12:45:00;;;;;;;270.20;158.83;;;;;;;;;;5071767;28;20404;-52
2023/08/26 12:47:27;;;;;;;264.80;151.67;;;;;;;;;;5072152;28;20416;-52
2023/08/26 12:49:54;;;;;;;268.23;150.00;;;;;;;;;;5071822;28;20415;-53
2023/08/26 12:52:20;;;;;;;264.33;145.00;;;;;;;;;;5084204;28;20469;-53
2023/08/26 12:54:46;;;;;;;266.27;153.73;;;;;;;;;;5092066;28;20781;-53
2023/08/26 12:57:12;;;;;;;277.73;176.53;;;;;;;;;;5092161;28;20398;-52
2023/08/26 12:59:37;;;;;;;267.50;158.17;;;;;;;;;;5092108;28;20885;-52
2023/08/26 13:02:04;;;;;;;265.87;153.73;;;;;;;;;;5091697;28;21036;-52
2023/08/26 13:04:29;;;;;;;273.80;165.00;;;;;;;;;;5092406;28;20474;-52
2023/08/26 13:06:55;;;;;;;271.77;161.77;;;;;;;;;;5092617;28;20923;-52
2023/08/26 13:09:22;;;;;;;271.27;156.83;;;;;;;;;;5092137;28;20879;-53
2023/08/26 13:11:48;;;;;;;271.57;157.07;;;;;;;;;;5091766;28;20457;-52
2023/08/26 13:14:14;;;;;;;273.33;168.00;;;;;;;;;;5091682;28;20455;-52
2023/08/26 13:16:40;;;;;;;270.07;170.90;;;;;;;;;;5092033;28;20399;-53
2023/08/26 13:19:06;;;;;;;264.87;151.37;;;;;;;;;;5091966;28;20468;-52
2023/08/26 13:21:32;;;;;;;272.97;170.07;;;;;;;;;;5091890;28;20449;-51
2023/08/26 13:23:58;;;;;;;267.47;163.43;;;;;;;;;;5092094;28;20423;-52
2023/08/26 13:26:24;;;;;;;265.37;156.43;;;;;;;;;;5092138;28;20404;-52
2023/08/26 13:28:50;;;;;;;262.87;146.93;;;;;;;;;;5091791;28;20410;-52
2023/08/26 13:31:16;;;;;;;264.03;150.17;;;;;;;;;;5091792;28;20482;-53
2023/08/26 13:33:42;;;;;;;265.47;154.13;;;;;;;;;;5091983;28;20459;-52
2023/08/26 13:36:07;;;;;;;265.07;149.83;;;;;;;;;;5091663;28;20410;-52
2023/08/26 13:38:33;;;;;;;268.23;147.67;;;;;;;;;;5091952;28;20406;-52
2023/08/26 13:40:59;;;;;;;263.07;145.00;;;;;;;;;;5091618;28;20457;-52
2023/08/26 13:43:25;;;;;;;263.50;143.70;;;;;;;;;;5091557;28;20848;-52
2023/08/26 13:45:52;;;;;;;263.57;150.20;;;;;;;;;;5091659;28;20404;-52
2023/08/26 13:48:18;;;;;;;262.87;141.73;;;;;;;;;;5091814;28;20399;-52